sensor_id;sensor_type;location;lat;lon;timestamp;temperature;humidity
18694;DHT22;9477;51.414;10.362;2024-01-30T00:01:30;7.60;99.70
18694;DHT22;9477;51.414;10.362;2024-01-30T00:03:33;7.50;99.70
18694;DHT22;9477;51.414;10.362;2024-01-30T00:05:37;7.50;99.90
18694;DHT22;9477;51.414;10.362;2024-01-30T00:07:40;7.40;99.90
18694;DHT22;9477;51.414;10.362;2024-01-30T00:09:43;7.40;99.90
18694;DHT22;9477;51.414;10.362;2024-01-30T00:11:47;7.40;99.90
18694;DHT22;9477;51.414;10.362;2024-01-30T00:13:50;7.40;99.90
18694;DHT22;9477;51.414;10.362;2024-01-30T00:15:53;7.40;99.90
18694;DHT22;9477;51.414;10.362;2024-01-30T00:17:56;7.40;99.90
18694;DHT22;9477;51.414;10.362;2024-01-30T00:19:59;7.40;99.90
18694;DHT22;9477;51.414;10.362;2024-01-30T00:22:03;7.30;99.90
18694;DHT22;9477;51.414;10.362;2024-01-30T00:24:06;7.30;99.90
18694;DHT22;9477;51.414;10.362;2024-01-30T00:26:09;7.40;99.90
18694;DHT22;9477;51.414;10.362;2024-01-30T00:28:11;7.30;99.90
18694;DHT22;9477;51.414;10.362;2024-01-30T00:30:14;7.30;99.90
18694;DHT22;9477;51.414;10.362;2024-01-30T00:32:16;7.30;99.90
18694;DHT22;9477;51.414;10.362;2024-01-30T00:34:20;7.20;99.90
18694;DHT22;9477;51.414;10.362;2024-01-30T00:36:23;7.20;99.90
18694;DHT22;9477;51.414;10.362;2024-01-30T00:38:28;7.30;99.90
18694;DHT22;9477;51.414;10.362;2024-01-30T00:40:30;7.30;99.90
18694;DHT22;9477;51.414;10.362;2024-01-30T00:42:33;7.30;99.90
18694;DHT22;9477;51.414;10.362;2024-01-30T00:44:36;7.20;99.90
18694;DHT22;9477;51.414;10.362;2024-01-30T00:46:40;7.20;99.90
18694;DHT22;9477;51.414;10.362;2024-01-30T00:48:42;7.10;99.90
18694;DHT22;9477;51.414;10.362;2024-01-30T00:50:45;7.10;99.90
18694;DHT22;9477;51.414;10.362;2024-01-30T00:52:48;7.10;99.90
18694;DHT22;9477;51.414;10.362;2024-01-30T00:54:52;7.10;99.90
18694;DHT22;9477;51.414;10.362;2024-01-30T00:56:55;7.10;99.90
18694;DHT22;9477;51.414;10.362;2024-01-30T00:58:57;7.10;99.90
18694;DHT22;9477;51.414;10.362;2024-01-30T01:01:00;7.10;99.90
18694;DHT22;9477;51.414;10.362;2024-01-30T01:03:03;7.10;99.90
18694;DHT22;9477;51.414;10.362;2024-01-30T01:05:06;7.10;99.90
18694;DHT22;9477;51.414;10.362;2024-01-30T01:07:09;7.20;99.90
18694;DHT22;9477;51.414;10.362;2024-01-30T01:09:13;7.20;99.90
18694;DHT22;9477;51.414;10.362;2024-01-30T01:11:17;7.10;99.90
18694;DHT22;9477;51.414;10.362;2024-01-30T01:13:20;7.10;99.90
18694;DHT22;9477;51.414;10.362;2024-01-30T01:15:22;7.10;99.90
18694;DHT22;9477;51.414;10.362;2024-01-30T01:17:28;7.10;99.90
18694;DHT22;9477;51.414;10.362;2024-01-30T01:19:31;7.10;99.90
18694;DHT22;9477;51.414;10.362;2024-01-30T01:21:34;7.00;99.90
18694;DHT22;9477;51.414;10.362;2024-01-30T01:23:37;7.00;99.90
18694;DHT22;9477;51.414;10.362;2024-01-30T01:25:42;7.00;99.90
18694;DHT22;9477;51.414;10.362;2024-01-30T01:27:46;7.00;99.90
18694;DHT22;9477;51.414;10.362;2024-01-30T01:29:53;7.00;99.90
18694;DHT22;9477;51.414;10.362;2024-01-30T01:31:56;7.00;99.90
18694;DHT22;9477;51.414;10.362;2024-01-30T01:33:58;7.00;99.90
18694;DHT22;9477;51.414;10.362;2024-01-30T01:36:01;6.90;99.90
18694;DHT22;9477;51.414;10.362;2024-01-30T01:38:04;6.90;99.90
18694;DHT22;9477;51.414;10.362;2024-01-30T01:40:08;6.90;99.90
18694;DHT22;9477;51.414;10.362;2024-01-30T01:42:11;6.90;99.90
18694;DHT22;9477;51.414;10.362;2024-01-30T01:44:15;6.90;99.90
18694;DHT22;9477;51.414;10.362;2024-01-30T01:46:18;6.90;99.90
18694;DHT22;9477;51.414;10.362;2024-01-30T01:48:21;6.90;99.90
18694;DHT22;9477;51.414;10.362;2024-01-30T01:50:23;6.90;99.90
18694;DHT22;9477;51.414;10.362;2024-01-30T01:52:27;6.90;99.90
18694;DHT22;9477;51.414;10.362;2024-01-30T01:54:30;6.90;99.90
18694;DHT22;9477;51.414;10.362;2024-01-30T01:56:34;6.90;99.90
18694;DHT22;9477;51.414;10.362;2024-01-30T01:58:37;6.90;99.90
18694;DHT22;9477;51.414;10.362;2024-01-30T02:00:41;6.90;99.90
18694;DHT22;9477;51.414;10.362;2024-01-30T02:02:45;6.90;99.90
18694;DHT22;9477;51.414;10.362;2024-01-30T02:04:48;6.90;99.90
18694;DHT22;9477;51.414;10.362;2024-01-30T02:06:51;7.00;99.90
18694;DHT22;9477;51.414;10.362;2024-01-30T02:08:55;7.00;99.90
18694;DHT22;9477;51.414;10.362;2024-01-30T02:10:57;7.00;99.90
18694;DHT22;9477;51.414;10.362;2024-01-30T02:13:00;7.10;99.90
18694;DHT22;9477;51.414;10.362;2024-01-30T02:15:03;7.10;99.90
18694;DHT22;9477;51.414;10.362;2024-01-30T02:17:08;7.10;99.90
18694;DHT22;9477;51.414;10.362;2024-01-30T02:19:10;7.00;99.90
18694;DHT22;9477;51.414;10.362;2024-01-30T02:21:16;6.90;99.90
18694;DHT22;9477;51.414;10.362;2024-01-30T02:23:19;6.90;99.90
18694;DHT22;9477;51.414;10.362;2024-01-30T02:25:30;7.00;99.90
18694;DHT22;9477;51.414;10.362;2024-01-30T02:27:33;7.00;99.90
18694;DHT22;9477;51.414;10.362;2024-01-30T02:29:36;7.10;99.90
18694;DHT22;9477;51.414;10.362;2024-01-30T02:31:39;7.10;99.90
18694;DHT22;9477;51.414;10.362;2024-01-30T02:33:40;7.20;99.90
18694;DHT22;9477;51.414;10.362;2024-01-30T02:35:43;7.20;99.90
18694;DHT22;9477;51.414;10.362;2024-01-30T02:37:47;7.20;99.90
18694;DHT22;9477;51.414;10.362;2024-01-30T02:39:50;7.20;99.90
18694;DHT22;9477;51.414;10.362;2024-01-30T02:41:52;7.20;99.90
18694;DHT22;9477;51.414;10.362;2024-01-30T02:43:56;7.20;99.90
18694;DHT22;9477;51.414;10.362;2024-01-30T02:45:59;7.30;99.90
18694;DHT22;9477;51.414;10.362;2024-01-30T02:48:03;7.30;99.90
18694;DHT22;9477;51.414;10.362;2024-01-30T02:50:06;7.40;99.90
18694;DHT22;9477;51.414;10.362;2024-01-30T02:52:09;7.40;99.90
18694;DHT22;9477;51.414;10.362;2024-01-30T02:54:13;7.40;99.90
18694;DHT22;9477;51.414;10.362;2024-01-30T02:56:16;7.30;99.90
18694;DHT22;9477;51.414;10.362;2024-01-30T02:58:19;7.30;99.90
18694;DHT22;9477;51.414;10.362;2024-01-30T03:00:23;7.30;99.90
18694;DHT22;9477;51.414;10.362;2024-01-30T03:02:26;7.30;99.90
18694;DHT22;9477;51.414;10.362;2024-01-30T03:04:29;7.30;99.90
18694;DHT22;9477;51.414;10.362;2024-01-30T03:06:32;7.30;99.90
18694;DHT22;9477;51.414;10.362;2024-01-30T03:08:33;7.30;99.90
18694;DHT22;9477;51.414;10.362;2024-01-30T03:10:38;7.30;99.90
18694;DHT22;9477;51.414;10.362;2024-01-30T03:12:40;7.20;99.90
18694;DHT22;9477;51.414;10.362;2024-01-30T03:14:43;7.20;99.90
18694;DHT22;9477;51.414;10.362;2024-01-30T03:16:46;7.20;99.90
18694;DHT22;9477;51.414;10.362;2024-01-30T03:18:49;7.10;99.90
18694;DHT22;9477;51.414;10.362;2024-01-30T03:20:52;7.20;99.90
18694;DHT22;9477;51.414;10.362;2024-01-30T03:22:54;7.20;99.90
18694;DHT22;9477;51.414;10.362;2024-01-30T03:24:57;7.20;99.90
18694;DHT22;9477;51.414;10.362;2024-01-30T03:27:01;7.10;99.90
18694;DHT22;9477;51.414;10.362;2024-01-30T03:29:04;7.10;99.90
18694;DHT22;9477;51.414;10.362;2024-01-30T03:31:06;7.00;99.90
18694;DHT22;9477;51.414;10.362;2024-01-30T03:33:09;7.00;99.90
18694;DHT22;9477;51.414;10.362;2024-01-30T03:35:12;7.00;99.90
18694;DHT22;9477;51.414;10.362;2024-01-30T03:37:15;7.00;99.90
18694;DHT22;9477;51.414;10.362;2024-01-30T03:39:18;7.00;99.90
18694;DHT22;9477;51.414;10.362;2024-01-30T03:41:21;7.00;99.90
18694;DHT22;9477;51.414;10.362;2024-01-30T03:43:25;7.00;99.90
18694;DHT22;9477;51.414;10.362;2024-01-30T03:45:28;6.90;99.90
18694;DHT22;9477;51.414;10.362;2024-01-30T03:47:31;6.90;99.90
18694;DHT22;9477;51.414;10.362;2024-01-30T03:49:33;6.90;99.90
18694;DHT22;9477;51.414;10.362;2024-01-30T03:51:36;6.90;99.90
18694;DHT22;9477;51.414;10.362;2024-01-30T03:53:39;6.90;99.90
18694;DHT22;9477;51.414;10.362;2024-01-30T03:55:42;6.90;99.90
18694;DHT22;9477;51.414;10.362;2024-01-30T03:57:45;6.90;99.90
18694;DHT22;9477;51.414;10.362;2024-01-30T03:59:49;6.80;99.90
18694;DHT22;9477;51.414;10.362;2024-01-30T04:01:52;6.80;99.90
18694;DHT22;9477;51.414;10.362;2024-01-30T04:03:54;6.80;99.90
18694;DHT22;9477;51.414;10.362;2024-01-30T04:05:57;6.80;99.90
18694;DHT22;9477;51.414;10.362;2024-01-30T04:07:59;6.70;99.90
18694;DHT22;9477;51.414;10.362;2024-01-30T04:10:03;6.70;99.90
18694;DHT22;9477;51.414;10.362;2024-01-30T04:12:07;6.70;99.90
18694;DHT22;9477;51.414;10.362;2024-01-30T04:14:10;6.70;99.90
18694;DHT22;9477;51.414;10.362;2024-01-30T04:16:20;6.70;99.90
18694;DHT22;9477;51.414;10.362;2024-01-30T04:18:24;6.70;99.90
18694;DHT22;9477;51.414;10.362;2024-01-30T04:20:27;6.80;99.90
18694;DHT22;9477;51.414;10.362;2024-01-30T04:22:30;6.80;99.90
18694;DHT22;9477;51.414;10.362;2024-01-30T04:24:32;6.80;99.90
18694;DHT22;9477;51.414;10.362;2024-01-30T04:26:35;6.70;99.90
18694;DHT22;9477;51.414;10.362;2024-01-30T04:28:38;6.70;99.90
18694;DHT22;9477;51.414;10.362;2024-01-30T04:30:41;6.70;99.90
18694;DHT22;9477;51.414;10.362;2024-01-30T04:32:44;6.80;99.90
18694;DHT22;9477;51.414;10.362;2024-01-30T04:34:47;6.70;99.90
18694;DHT22;9477;51.414;10.362;2024-01-30T04:36:50;6.70;99.90
18694;DHT22;9477;51.414;10.362;2024-01-30T04:38:53;6.70;99.90
18694;DHT22;9477;51.414;10.362;2024-01-30T04:40:55;6.70;99.90
18694;DHT22;9477;51.414;10.362;2024-01-30T04:42:58;6.60;99.90
18694;DHT22;9477;51.414;10.362;2024-01-30T04:45:01;6.60;99.90
18694;DHT22;9477;51.414;10.362;2024-01-30T04:47:04;6.60;99.90
18694;DHT22;9477;51.414;10.362;2024-01-30T04:49:09;6.50;99.90
18694;DHT22;9477;51.414;10.362;2024-01-30T04:51:12;6.50;99.90
18694;DHT22;9477;51.414;10.362;2024-01-30T04:53:14;6.50;99.90
18694;DHT22;9477;51.414;10.362;2024-01-30T04:55:17;6.50;99.90
18694;DHT22;9477;51.414;10.362;2024-01-30T04:57:23;6.50;99.90
18694;DHT22;9477;51.414;10.362;2024-01-30T04:59:26;6.50;99.90
18694;DHT22;9477;51.414;10.362;2024-01-30T05:01:29;6.50;99.90
18694;DHT22;9477;51.414;10.362;2024-01-30T05:03:33;6.40;99.90
18694;DHT22;9477;51.414;10.362;2024-01-30T05:05:37;6.40;99.90
18694;DHT22;9477;51.414;10.362;2024-01-30T05:07:41;6.30;99.90
18694;DHT22;9477;51.414;10.362;2024-01-30T05:09:44;6.30;99.90
18694;DHT22;9477;51.414;10.362;2024-01-30T05:11:47;6.20;99.90
18694;DHT22;9477;51.414;10.362;2024-01-30T05:13:49;6.30;99.90
18694;DHT22;9477;51.414;10.362;2024-01-30T05:15:52;6.40;99.90
18694;DHT22;9477;51.414;10.362;2024-01-30T05:17:55;6.40;99.90
18694;DHT22;9477;51.414;10.362;2024-01-30T05:19:58;6.40;99.90
18694;DHT22;9477;51.414;10.362;2024-01-30T05:22:02;6.50;99.90
18694;DHT22;9477;51.414;10.362;2024-01-30T05:24:06;6.50;99.90
18694;DHT22;9477;51.414;10.362;2024-01-30T05:26:08;6.50;99.90
18694;DHT22;9477;51.414;10.362;2024-01-30T05:28:11;6.50;99.90
18694;DHT22;9477;51.414;10.362;2024-01-30T05:30:14;6.50;99.90
18694;DHT22;9477;51.414;10.362;2024-01-30T05:32:17;6.50;99.90
18694;DHT22;9477;51.414;10.362;2024-01-30T05:34:20;6.60;99.90
18694;DHT22;9477;51.414;10.362;2024-01-30T05:36:22;6.50;99.90
18694;DHT22;9477;51.414;10.362;2024-01-30T05:38:27;6.50;99.90
18694;DHT22;9477;51.414;10.362;2024-01-30T05:40:29;6.40;99.90
18694;DHT22;9477;51.414;10.362;2024-01-30T05:42:32;6.40;99.90
18694;DHT22;9477;51.414;10.362;2024-01-30T05:44:35;6.40;99.90
18694;DHT22;9477;51.414;10.362;2024-01-30T05:46:38;6.30;99.90
18694;DHT22;9477;51.414;10.362;2024-01-30T05:48:41;6.30;99.90
18694;DHT22;9477;51.414;10.362;2024-01-30T05:50:43;6.30;99.90
18694;DHT22;9477;51.414;10.362;2024-01-30T05:52:46;6.30;99.90
18694;DHT22;9477;51.414;10.362;2024-01-30T05:54:51;6.40;99.90
18694;DHT22;9477;51.414;10.362;2024-01-30T05:56:53;6.40;99.90
18694;DHT22;9477;51.414;10.362;2024-01-30T05:58:56;6.40;99.90
18694;DHT22;9477;51.414;10.362;2024-01-30T06:00:59;6.50;99.90
18694;DHT22;9477;51.414;10.362;2024-01-30T06:03:02;6.50;99.90
18694;DHT22;9477;51.414;10.362;2024-01-30T06:05:04;6.60;99.90
18694;DHT22;9477;51.414;10.362;2024-01-30T06:07:07;6.60;99.90
18694;DHT22;9477;51.414;10.362;2024-01-30T06:09:10;6.60;99.90
18694;DHT22;9477;51.414;10.362;2024-01-30T06:11:16;6.60;99.90
18694;DHT22;9477;51.414;10.362;2024-01-30T06:13:18;6.70;99.90
18694;DHT22;9477;51.414;10.362;2024-01-30T06:15:21;6.70;99.90
18694;DHT22;9477;51.414;10.362;2024-01-30T06:17:24;6.70;99.90
18694;DHT22;9477;51.414;10.362;2024-01-30T06:19:27;6.80;99.90
18694;DHT22;9477;51.414;10.362;2024-01-30T06:21:30;6.90;99.90
18694;DHT22;9477;51.414;10.362;2024-01-30T06:23:33;6.90;99.90
18694;DHT22;9477;51.414;10.362;2024-01-30T06:25:36;6.90;99.90
18694;DHT22;9477;51.414;10.362;2024-01-30T06:27:41;6.90;99.90
18694;DHT22;9477;51.414;10.362;2024-01-30T06:29:43;6.90;99.90
18694;DHT22;9477;51.414;10.362;2024-01-30T06:31:46;6.90;99.90
18694;DHT22;9477;51.414;10.362;2024-01-30T06:33:49;6.90;99.90
18694;DHT22;9477;51.414;10.362;2024-01-30T06:35:52;6.80;99.90
18694;DHT22;9477;51.414;10.362;2024-01-30T06:37:55;6.90;99.90
18694;DHT22;9477;51.414;10.362;2024-01-30T06:39:58;6.90;99.90
18694;DHT22;9477;51.414;10.362;2024-01-30T06:42:01;6.90;99.90
18694;DHT22;9477;51.414;10.362;2024-01-30T06:44:05;6.90;99.90
18694;DHT22;9477;51.414;10.362;2024-01-30T06:46:10;6.80;99.90
18694;DHT22;9477;51.414;10.362;2024-01-30T06:48:12;6.80;99.90
18694;DHT22;9477;51.414;10.362;2024-01-30T06:50:15;6.70;99.90
18694;DHT22;9477;51.414;10.362;2024-01-30T06:52:18;6.70;99.90
18694;DHT22;9477;51.414;10.362;2024-01-30T06:54:21;6.70;99.90
18694;DHT22;9477;51.414;10.362;2024-01-30T06:56:24;6.70;99.90
18694;DHT22;9477;51.414;10.362;2024-01-30T06:58:26;6.70;99.90
18694;DHT22;9477;51.414;10.362;2024-01-30T07:00:31;6.70;99.90
18694;DHT22;9477;51.414;10.362;2024-01-30T07:02:34;6.70;99.90
18694;DHT22;9477;51.414;10.362;2024-01-30T07:04:36;6.70;99.90
18694;DHT22;9477;51.414;10.362;2024-01-30T07:06:46;6.80;99.90
18694;DHT22;9477;51.414;10.362;2024-01-30T07:08:49;6.80;99.90
18694;DHT22;9477;51.414;10.362;2024-01-30T07:10:52;6.80;99.90
18694;DHT22;9477;51.414;10.362;2024-01-30T07:13:01;6.80;99.90
18694;DHT22;9477;51.414;10.362;2024-01-30T07:15:06;6.80;99.90
18694;DHT22;9477;51.414;10.362;2024-01-30T07:17:12;6.80;99.90
18694;DHT22;9477;51.414;10.362;2024-01-30T07:19:14;6.80;99.90
18694;DHT22;9477;51.414;10.362;2024-01-30T07:21:17;6.80;99.90
18694;DHT22;9477;51.414;10.362;2024-01-30T07:23:20;6.80;99.90
18694;DHT22;9477;51.414;10.362;2024-01-30T07:25:23;6.80;99.90
18694;DHT22;9477;51.414;10.362;2024-01-30T07:27:28;6.80;99.90
18694;DHT22;9477;51.414;10.362;2024-01-30T07:29:31;6.80;99.90
18694;DHT22;9477;51.414;10.362;2024-01-30T07:31:34;6.80;99.90
18694;DHT22;9477;51.414;10.362;2024-01-30T07:33:38;6.80;99.90
18694;DHT22;9477;51.414;10.362;2024-01-30T07:35:41;6.80;99.90
18694;DHT22;9477;51.414;10.362;2024-01-30T07:37:44;6.80;99.90
18694;DHT22;9477;51.414;10.362;2024-01-30T07:39:47;6.80;99.90
18694;DHT22;9477;51.414;10.362;2024-01-30T07:41:50;6.80;99.90
18694;DHT22;9477;51.414;10.362;2024-01-30T07:43:52;6.80;99.90
18694;DHT22;9477;51.414;10.362;2024-01-30T07:45:55;6.80;99.90
18694;DHT22;9477;51.414;10.362;2024-01-30T07:47:58;6.80;99.90
18694;DHT22;9477;51.414;10.362;2024-01-30T07:50:04;6.90;99.90
18694;DHT22;9477;51.414;10.362;2024-01-30T07:52:06;7.00;99.90
18694;DHT22;9477;51.414;10.362;2024-01-30T07:54:09;7.10;99.90
18694;DHT22;9477;51.414;10.362;2024-01-30T07:56:12;7.10;99.90
18694;DHT22;9477;51.414;10.362;2024-01-30T07:58:14;7.10;99.90
18694;DHT22;9477;51.414;10.362;2024-01-30T08:00:17;7.10;99.90
18694;DHT22;9477;51.414;10.362;2024-01-30T08:02:19;7.10;99.90
18694;DHT22;9477;51.414;10.362;2024-01-30T08:04:22;7.20;99.90
18694;DHT22;9477;51.414;10.362;2024-01-30T08:06:26;7.20;99.90
18694;DHT22;9477;51.414;10.362;2024-01-30T08:08:29;7.30;99.90
18694;DHT22;9477;51.414;10.362;2024-01-30T08:10:32;7.30;99.90
18694;DHT22;9477;51.414;10.362;2024-01-30T08:12:35;7.30;99.90
18694;DHT22;9477;51.414;10.362;2024-01-30T08:14:37;7.40;99.90
18694;DHT22;9477;51.414;10.362;2024-01-30T08:16:40;7.40;99.90
18694;DHT22;9477;51.414;10.362;2024-01-30T08:18:43;7.50;99.90
18694;DHT22;9477;51.414;10.362;2024-01-30T08:20:46;7.50;99.90
18694;DHT22;9477;51.414;10.362;2024-01-30T08:22:50;7.60;99.90
18694;DHT22;9477;51.414;10.362;2024-01-30T08:24:52;7.60;99.90
18694;DHT22;9477;51.414;10.362;2024-01-30T08:26:54;7.60;99.90
18694;DHT22;9477;51.414;10.362;2024-01-30T08:28:57;7.70;99.90
18694;DHT22;9477;51.414;10.362;2024-01-30T08:31:00;7.80;99.90
18694;DHT22;9477;51.414;10.362;2024-01-30T08:33:04;7.90;99.90
18694;DHT22;9477;51.414;10.362;2024-01-30T08:35:07;7.90;99.90
18694;DHT22;9477;51.414;10.362;2024-01-30T08:37:10;8.00;99.90
18694;DHT22;9477;51.414;10.362;2024-01-30T08:39:15;8.10;99.90
18694;DHT22;9477;51.414;10.362;2024-01-30T08:41:17;8.10;99.90
18694;DHT22;9477;51.414;10.362;2024-01-30T08:43:20;8.20;99.90
18694;DHT22;9477;51.414;10.362;2024-01-30T08:45:23;8.30;99.90
18694;DHT22;9477;51.414;10.362;2024-01-30T08:47:26;8.40;99.90
18694;DHT22;9477;51.414;10.362;2024-01-30T08:49:28;8.50;99.90
18694;DHT22;9477;51.414;10.362;2024-01-30T08:51:30;8.70;99.90
18694;DHT22;9477;51.414;10.362;2024-01-30T08:53:34;8.80;99.90
18694;DHT22;9477;51.414;10.362;2024-01-30T08:55:37;8.90;99.90
18694;DHT22;9477;51.414;10.362;2024-01-30T08:57:41;9.00;99.90
18694;DHT22;9477;51.414;10.362;2024-01-30T08:59:42;9.10;99.90
18694;DHT22;9477;51.414;10.362;2024-01-30T09:01:46;9.20;99.90
18694;DHT22;9477;51.414;10.362;2024-01-30T09:04:04;9.30;99.90
18694;DHT22;9477;51.414;10.362;2024-01-30T09:06:08;9.40;99.90
18694;DHT22;9477;51.414;10.362;2024-01-30T09:08:11;9.50;99.90
18694;DHT22;9477;51.414;10.362;2024-01-30T09:10:14;9.60;99.90
18694;DHT22;9477;51.414;10.362;2024-01-30T09:12:22;9.80;99.90
18694;DHT22;9477;51.414;10.362;2024-01-30T09:14:25;9.90;99.90
18694;DHT22;9477;51.414;10.362;2024-01-30T09:16:28;10.00;99.90
18694;DHT22;9477;51.414;10.362;2024-01-30T09:18:31;10.00;99.90
18694;DHT22;9477;51.414;10.362;2024-01-30T09:20:34;10.10;99.90
18694;DHT22;9477;51.414;10.362;2024-01-30T09:22:37;10.10;99.90
18694;DHT22;9477;51.414;10.362;2024-01-30T09:24:40;10.20;99.90
18694;DHT22;9477;51.414;10.362;2024-01-30T09:26:42;10.20;99.90
18694;DHT22;9477;51.414;10.362;2024-01-30T09:28:47;10.30;99.90
18694;DHT22;9477;51.414;10.362;2024-01-30T09:30:50;10.40;99.90
18694;DHT22;9477;51.414;10.362;2024-01-30T09:32:52;10.40;99.90
18694;DHT22;9477;51.414;10.362;2024-01-30T09:34:55;10.50;99.90
18694;DHT22;9477;51.414;10.362;2024-01-30T09:36:59;10.60;99.90
18694;DHT22;9477;51.414;10.362;2024-01-30T09:39:02;10.60;99.90
18694;DHT22;9477;51.414;10.362;2024-01-30T09:41:09;10.70;99.90
18694;DHT22;9477;51.414;10.362;2024-01-30T09:43:17;10.70;99.90
18694;DHT22;9477;51.414;10.362;2024-01-30T09:45:30;10.80;99.90
18694;DHT22;9477;51.414;10.362;2024-01-30T09:47:39;10.80;99.90
18694;DHT22;9477;51.414;10.362;2024-01-30T09:49:43;10.90;99.90
18694;DHT22;9477;51.414;10.362;2024-01-30T09:51:48;11.00;99.90
18694;DHT22;9477;51.414;10.362;2024-01-30T09:53:51;11.00;99.90
18694;DHT22;9477;51.414;10.362;2024-01-30T09:55:54;11.10;99.90
18694;DHT22;9477;51.414;10.362;2024-01-30T09:57:57;11.20;99.90
18694;DHT22;9477;51.414;10.362;2024-01-30T10:00:01;11.20;99.90
18694;DHT22;9477;51.414;10.362;2024-01-30T10:02:07;11.30;99.90
18694;DHT22;9477;51.414;10.362;2024-01-30T10:04:09;11.30;99.90
18694;DHT22;9477;51.414;10.362;2024-01-30T10:06:13;11.40;99.90
18694;DHT22;9477;51.414;10.362;2024-01-30T10:08:17;11.40;99.90
18694;DHT22;9477;51.414;10.362;2024-01-30T10:10:21;11.50;99.90
18694;DHT22;9477;51.414;10.362;2024-01-30T10:12:26;11.50;99.90
18694;DHT22;9477;51.414;10.362;2024-01-30T10:14:29;11.50;99.90
18694;DHT22;9477;51.414;10.362;2024-01-30T10:16:32;11.60;99.90
18694;DHT22;9477;51.414;10.362;2024-01-30T10:18:36;11.60;99.90
18694;DHT22;9477;51.414;10.362;2024-01-30T10:20:41;11.60;99.90
18694;DHT22;9477;51.414;10.362;2024-01-30T10:22:44;11.60;99.90
18694;DHT22;9477;51.414;10.362;2024-01-30T10:24:48;11.60;99.90
18694;DHT22;9477;51.414;10.362;2024-01-30T10:26:51;11.70;99.90
18694;DHT22;9477;51.414;10.362;2024-01-30T10:28:54;11.80;99.90
18694;DHT22;9477;51.414;10.362;2024-01-30T10:30:58;11.80;99.90
18694;DHT22;9477;51.414;10.362;2024-01-30T10:33:06;11.80;99.90
18694;DHT22;9477;51.414;10.362;2024-01-30T10:35:11;11.90;99.90
18694;DHT22;9477;51.414;10.362;2024-01-30T10:37:13;12.00;99.90
18694;DHT22;9477;51.414;10.362;2024-01-30T10:39:18;12.10;99.90
18694;DHT22;9477;51.414;10.362;2024-01-30T10:41:26;12.20;99.90
18694;DHT22;9477;51.414;10.362;2024-01-30T10:43:32;12.30;99.90
18694;DHT22;9477;51.414;10.362;2024-01-30T10:45:35;12.30;99.90
18694;DHT22;9477;51.414;10.362;2024-01-30T10:47:44;12.40;99.90
18694;DHT22;9477;51.414;10.362;2024-01-30T10:49:51;12.50;99.90
18694;DHT22;9477;51.414;10.362;2024-01-30T10:51:57;12.50;99.90
18694;DHT22;9477;51.414;10.362;2024-01-30T10:54:01;12.50;99.90
18694;DHT22;9477;51.414;10.362;2024-01-30T10:56:04;12.60;99.90
18694;DHT22;9477;51.414;10.362;2024-01-30T10:58:08;12.60;99.90
18694;DHT22;9477;51.414;10.362;2024-01-30T11:00:14;12.70;99.90
18694;DHT22;9477;51.414;10.362;2024-01-30T11:02:18;12.80;99.90
18694;DHT22;9477;51.414;10.362;2024-01-30T11:04:21;12.80;99.90
18694;DHT22;9477;51.414;10.362;2024-01-30T11:06:25;12.90;99.90
18694;DHT22;9477;51.414;10.362;2024-01-30T11:08:32;12.90;99.90
18694;DHT22;9477;51.414;10.362;2024-01-30T11:10:44;13.00;99.90
18694;DHT22;9477;51.414;10.362;2024-01-30T11:12:47;12.90;99.90
18694;DHT22;9477;51.414;10.362;2024-01-30T11:15:02;13.00;99.90
18694;DHT22;9477;51.414;10.362;2024-01-30T11:17:05;12.90;99.90
18694;DHT22;9477;51.414;10.362;2024-01-30T11:19:11;13.00;99.90
18694;DHT22;9477;51.414;10.362;2024-01-30T11:21:14;13.00;99.90
18694;DHT22;9477;51.414;10.362;2024-01-30T11:23:17;13.00;99.90
18694;DHT22;9477;51.414;10.362;2024-01-30T11:25:22;13.00;99.90
18694;DHT22;9477;51.414;10.362;2024-01-30T11:27:26;13.10;99.90
18694;DHT22;9477;51.414;10.362;2024-01-30T11:29:37;13.10;99.90
18694;DHT22;9477;51.414;10.362;2024-01-30T11:31:40;13.20;99.90
18694;DHT22;9477;51.414;10.362;2024-01-30T11:33:53;13.10;99.90
18694;DHT22;9477;51.414;10.362;2024-01-30T11:35:57;13.10;99.90
18694;DHT22;9477;51.414;10.362;2024-01-30T11:38:02;13.10;99.90
18694;DHT22;9477;51.414;10.362;2024-01-30T11:40:06;13.20;99.90
18694;DHT22;9477;51.414;10.362;2024-01-30T11:42:11;13.20;99.90
18694;DHT22;9477;51.414;10.362;2024-01-30T11:44:15;13.30;99.90
18694;DHT22;9477;51.414;10.362;2024-01-30T11:46:18;13.30;99.90
18694;DHT22;9477;51.414;10.362;2024-01-30T11:48:21;13.40;99.90
18694;DHT22;9477;51.414;10.362;2024-01-30T11:50:24;13.40;99.90
18694;DHT22;9477;51.414;10.362;2024-01-30T11:52:26;13.40;99.90
18694;DHT22;9477;51.414;10.362;2024-01-30T11:54:31;13.40;99.90
18694;DHT22;9477;51.414;10.362;2024-01-30T11:56:33;13.50;99.90
18694;DHT22;9477;51.414;10.362;2024-01-30T11:58:38;13.50;99.90
18694;DHT22;9477;51.414;10.362;2024-01-30T12:00:53;13.50;99.90
18694;DHT22;9477;51.414;10.362;2024-01-30T12:02:56;13.50;99.90
18694;DHT22;9477;51.414;10.362;2024-01-30T12:05:03;13.50;99.90
18694;DHT22;9477;51.414;10.362;2024-01-30T12:07:06;13.50;99.90
18694;DHT22;9477;51.414;10.362;2024-01-30T12:09:09;13.50;99.90
18694;DHT22;9477;51.414;10.362;2024-01-30T12:11:14;13.50;99.90
18694;DHT22;9477;51.414;10.362;2024-01-30T12:13:17;13.60;99.90
18694;DHT22;9477;51.414;10.362;2024-01-30T12:15:22;13.60;99.90
18694;DHT22;9477;51.414;10.362;2024-01-30T12:17:28;13.70;99.90
18694;DHT22;9477;51.414;10.362;2024-01-30T12:19:30;13.60;99.90
18694;DHT22;9477;51.414;10.362;2024-01-30T12:21:34;13.60;99.90
18694;DHT22;9477;51.414;10.362;2024-01-30T12:23:37;13.60;99.90
18694;DHT22;9477;51.414;10.362;2024-01-30T12:25:40;13.60;99.90
18694;DHT22;9477;51.414;10.362;2024-01-30T12:27:44;13.50;99.90
18694;DHT22;9477;51.414;10.362;2024-01-30T12:29:47;13.50;99.90
18694;DHT22;9477;51.414;10.362;2024-01-30T12:31:54;13.40;99.90
18694;DHT22;9477;51.414;10.362;2024-01-30T12:33:59;13.40;99.90
18694;DHT22;9477;51.414;10.362;2024-01-30T12:36:04;13.40;99.90
18694;DHT22;9477;51.414;10.362;2024-01-30T12:38:08;13.30;99.90
18694;DHT22;9477;51.414;10.362;2024-01-30T12:40:10;13.20;99.90
18694;DHT22;9477;51.414;10.362;2024-01-30T12:42:15;13.30;99.90
18694;DHT22;9477;51.414;10.362;2024-01-30T12:44:17;13.30;99.90
18694;DHT22;9477;51.414;10.362;2024-01-30T12:46:20;13.10;99.90
18694;DHT22;9477;51.414;10.362;2024-01-30T12:48:24;13.10;99.90
18694;DHT22;9477;51.414;10.362;2024-01-30T12:50:27;13.10;99.90
18694;DHT22;9477;51.414;10.362;2024-01-30T12:52:30;13.20;99.90
18694;DHT22;9477;51.414;10.362;2024-01-30T12:54:33;13.30;99.90
18694;DHT22;9477;51.414;10.362;2024-01-30T12:56:36;13.30;99.90
18694;DHT22;9477;51.414;10.362;2024-01-30T12:58:39;13.30;99.90
18694;DHT22;9477;51.414;10.362;2024-01-30T13:00:43;13.30;99.90
18694;DHT22;9477;51.414;10.362;2024-01-30T13:02:50;13.40;99.90
18694;DHT22;9477;51.414;10.362;2024-01-30T13:04:54;13.40;99.90
18694;DHT22;9477;51.414;10.362;2024-01-30T13:06:57;13.30;99.90
18694;DHT22;9477;51.414;10.362;2024-01-30T13:09:00;13.30;99.90
18694;DHT22;9477;51.414;10.362;2024-01-30T13:11:03;13.40;99.90